sensor_id;sensor_type;location;lat;lon;timestamp;pressure;altitude;pressure_sealevel;temperature;humidity
16355;BME280;8287;51.644;8.494;2023-06-01T00:01:31;100981.44;;;17.18;66.69
16355;BME280;8287;51.644;8.494;2023-06-01T00:03:58;100976.97;;;17.22;65.89
16355;BME280;8287;51.644;8.494;2023-06-01T00:06:25;100971.25;;;17.12;66.64
16355;BME280;8287;51.644;8.494;2023-06-01T00:08:54;100980.63;;;17.06;67.82
16355;BME280;8287;51.644;8.494;2023-06-01T00:11:21;100977.91;;;16.94;68.75
16355;BME280;8287;51.644;8.494;2023-06-01T00:13:49;100967.81;;;16.79;69.06
16355;BME280;8287;51.644;8.494;2023-06-01T00:16:16;100973.16;;;16.79;68.89
16355;BME280;8287;51.644;8.494;2023-06-01T00:18:43;100967.91;;;16.71;68.86
16355;BME280;8287;51.644;8.494;2023-06-01T00:21:10;100966.16;;;16.54;70.04
16355;BME280;8287;51.644;8.494;2023-06-01T00:23:37;100965.38;;;16.54;69.53
16355;BME280;8287;51.644;8.494;2023-06-01T00:26:08;100969.94;;;16.53;69.31
16355;BME280;8287;51.644;8.494;2023-06-01T00:28:34;100974.84;;;16.51;68.86
16355;BME280;8287;51.644;8.494;2023-06-01T00:31:01;100971.44;;;16.42;70.35
16355;BME280;8287;51.644;8.494;2023-06-01T00:33:27;100974.00;;;16.39;70.13
16355;BME280;8287;51.644;8.494;2023-06-01T00:35:54;100971.63;;;16.37;70.71
16355;BME280;8287;51.644;8.494;2023-06-01T00:38:21;100981.72;;;16.32;71.01
16355;BME280;8287;51.644;8.494;2023-06-01T00:40:47;100976.91;;;16.25;71.41
16355;BME280;8287;51.644;8.494;2023-06-01T00:43:17;100976.59;;;16.27;71.58
16355;BME280;8287;51.644;8.494;2023-06-01T00:45:44;100975.19;;;16.21;71.45
16355;BME280;8287;51.644;8.494;2023-06-01T00:48:11;100970.16;;;16.19;70.81
16355;BME280;8287;51.644;8.494;2023-06-01T00:50:37;100963.34;;;16.10;70.92
16355;BME280;8287;51.644;8.494;2023-06-01T00:53:07;100971.66;;;16.08;71.29
16355;BME280;8287;51.644;8.494;2023-06-01T00:55:34;100962.91;;;15.99;72.11
16355;BME280;8287;51.644;8.494;2023-06-01T00:58:02;100977.56;;;15.93;71.52
16355;BME280;8287;51.644;8.494;2023-06-01T01:00:30;100970.66;;;15.92;70.94
16355;BME280;8287;51.644;8.494;2023-06-01T01:02:57;100975.06;;;15.88;71.37
16355;BME280;8287;51.644;8.494;2023-06-01T01:05:26;100970.69;;;15.84;71.99
16355;BME280;8287;51.644;8.494;2023-06-01T01:07:57;100971.34;;;15.81;71.80
16355;BME280;8287;51.644;8.494;2023-06-01T01:10:32;100973.13;;;15.77;70.53
16355;BME280;8287;51.644;8.494;2023-06-01T01:13:04;100967.16;;;15.71;71.12
16355;BME280;8287;51.644;8.494;2023-06-01T01:15:45;100972.22;;;15.64;72.06
16355;BME280;8287;51.644;8.494;2023-06-01T01:18:15;100979.66;;;15.50;73.04
16355;BME280;8287;51.644;8.494;2023-06-01T01:20:48;100971.97;;;15.49;72.29
16355;BME280;8287;51.644;8.494;2023-06-01T01:23:37;100969.50;;;15.44;73.16
16355;BME280;8287;51.644;8.494;2023-06-01T01:26:22;100970.59;;;15.43;73.62
16355;BME280;8287;51.644;8.494;2023-06-01T01:28:53;100976.56;;;15.40;72.58
16355;BME280;8287;51.644;8.494;2023-06-01T01:31:23;100979.56;;;15.38;72.94
16355;BME280;8287;51.644;8.494;2023-06-01T01:33:51;100977.53;;;15.35;73.33
16355;BME280;8287;51.644;8.494;2023-06-01T01:36:19;100987.75;;;15.33;74.20
16355;BME280;8287;51.644;8.494;2023-06-01T01:38:47;100983.19;;;15.25;73.73
16355;BME280;8287;51.644;8.494;2023-06-01T01:41:13;100976.28;;;15.24;74.41
16355;BME280;8287;51.644;8.494;2023-06-01T01:43:41;100986.97;;;15.24;74.00
16355;BME280;8287;51.644;8.494;2023-06-01T01:46:21;100986.81;;;15.21;74.39
16355;BME280;8287;51.644;8.494;2023-06-01T01:48:52;100993.41;;;15.15;74.93
16355;BME280;8287;51.644;8.494;2023-06-01T01:51:27;100997.69;;;15.07;74.57
16355;BME280;8287;51.644;8.494;2023-06-01T01:53:56;100997.50;;;15.12;75.20
16355;BME280;8287;51.644;8.494;2023-06-01T01:56:25;101001.91;;;15.08;74.92
16355;BME280;8287;51.644;8.494;2023-06-01T01:58:53;100998.00;;;14.97;75.81
16355;BME280;8287;51.644;8.494;2023-06-01T02:01:21;101008.06;;;14.83;77.84
16355;BME280;8287;51.644;8.494;2023-06-01T02:03:57;101001.34;;;14.69;78.94
16355;BME280;8287;51.644;8.494;2023-06-01T02:06:25;101001.94;;;14.49;80.16
16355;BME280;8287;51.644;8.494;2023-06-01T02:08:51;101000.84;;;14.58;79.83
16355;BME280;8287;51.644;8.494;2023-06-01T02:11:18;100991.44;;;14.69;79.38
16355;BME280;8287;51.644;8.494;2023-06-01T02:13:45;100992.88;;;14.67;78.83
16355;BME280;8287;51.644;8.494;2023-06-01T02:16:11;100991.59;;;14.64;78.87
16355;BME280;8287;51.644;8.494;2023-06-01T02:18:39;100993.31;;;14.60;78.22
16355;BME280;8287;51.644;8.494;2023-06-01T02:21:07;100992.38;;;14.56;79.04
16355;BME280;8287;51.644;8.494;2023-06-01T02:23:34;100998.72;;;14.13;81.01
16355;BME280;8287;51.644;8.494;2023-06-01T02:26:00;100994.13;;;13.79;83.30
16355;BME280;8287;51.644;8.494;2023-06-01T02:28:28;100998.94;;;13.69;83.80
16355;BME280;8287;51.644;8.494;2023-06-01T02:30:54;100998.75;;;13.65;83.78
16355;BME280;8287;51.644;8.494;2023-06-01T02:33:21;100999.06;;;13.64;83.67
16355;BME280;8287;51.644;8.494;2023-06-01T02:35:51;101002.63;;;13.59;84.31
16355;BME280;8287;51.644;8.494;2023-06-01T02:38:18;101004.13;;;13.43;84.94
16355;BME280;8287;51.644;8.494;2023-06-01T02:40:44;101004.84;;;13.27;86.46
16355;BME280;8287;51.644;8.494;2023-06-01T02:43:11;100992.63;;;13.56;85.02
16355;BME280;8287;51.644;8.494;2023-06-01T02:45:37;100997.81;;;13.70;84.17
16355;BME280;8287;51.644;8.494;2023-06-01T02:48:05;101000.50;;;13.70;83.74
16355;BME280;8287;51.644;8.494;2023-06-01T02:50:31;101002.63;;;13.59;84.24
16355;BME280;8287;51.644;8.494;2023-06-01T02:52:59;101002.13;;;13.49;84.54
16355;BME280;8287;51.644;8.494;2023-06-01T02:55:26;101001.06;;;13.58;84.59
16355;BME280;8287;51.644;8.494;2023-06-01T02:57:53;100998.63;;;13.70;83.72
16355;BME280;8287;51.644;8.494;2023-06-01T03:00:19;100999.63;;;13.83;81.84
16355;BME280;8287;51.644;8.494;2023-06-01T03:02:47;100996.44;;;13.72;83.51
16355;BME280;8287;51.644;8.494;2023-06-01T03:05:14;100994.72;;;13.37;84.56
16355;BME280;8287;51.644;8.494;2023-06-01T03:07:43;101000.38;;;13.14;86.29
16355;BME280;8287;51.644;8.494;2023-06-01T03:10:11;100995.47;;;13.08;87.01
16355;BME280;8287;51.644;8.494;2023-06-01T03:12:38;101000.16;;;13.02;87.13
16355;BME280;8287;51.644;8.494;2023-06-01T03:15:05;101003.03;;;13.14;87.42
16355;BME280;8287;51.644;8.494;2023-06-01T03:17:32;100999.41;;;13.10;87.59
16355;BME280;8287;51.644;8.494;2023-06-01T03:19:59;101008.16;;;13.11;88.72
16355;BME280;8287;51.644;8.494;2023-06-01T03:22:28;101001.63;;;13.38;87.61
16355;BME280;8287;51.644;8.494;2023-06-01T03:24:54;101002.28;;;13.52;86.25
16355;BME280;8287;51.644;8.494;2023-06-01T03:27:22;100994.97;;;13.58;85.65
16355;BME280;8287;51.644;8.494;2023-06-01T03:29:49;100997.03;;;13.69;85.28
16355;BME280;8287;51.644;8.494;2023-06-01T03:32:15;100999.28;;;13.76;84.00
16355;BME280;8287;51.644;8.494;2023-06-01T03:34:42;100990.34;;;13.80;82.28
16355;BME280;8287;51.644;8.494;2023-06-01T03:37:08;100990.47;;;13.75;82.27
16355;BME280;8287;51.644;8.494;2023-06-01T03:39:35;100990.63;;;13.70;82.48
16355;BME280;8287;51.644;8.494;2023-06-01T03:42:02;100995.56;;;13.55;82.88
16355;BME280;8287;51.644;8.494;2023-06-01T03:44:30;100998.09;;;13.60;82.59
16355;BME280;8287;51.644;8.494;2023-06-01T03:46:56;100997.00;;;13.61;82.03
16355;BME280;8287;51.644;8.494;2023-06-01T03:49:24;101004.38;;;13.64;82.54
16355;BME280;8287;51.644;8.494;2023-06-01T03:51:50;101019.09;;;13.61;82.43
16355;BME280;8287;51.644;8.494;2023-06-01T03:54:17;100999.38;;;13.62;82.29
16355;BME280;8287;51.644;8.494;2023-06-01T03:56:44;101004.31;;;13.47;83.13
16355;BME280;8287;51.644;8.494;2023-06-01T03:59:10;101005.31;;;13.59;82.88
16355;BME280;8287;51.644;8.494;2023-06-01T04:01:38;101008.41;;;13.53;83.02
16355;BME280;8287;51.644;8.494;2023-06-01T04:04:05;101004.94;;;13.52;83.64
16355;BME280;8287;51.644;8.494;2023-06-01T04:06:33;101009.69;;;13.55;83.55
16355;BME280;8287;51.644;8.494;2023-06-01T04:09:00;101014.38;;;13.58;83.30
16355;BME280;8287;51.644;8.494;2023-06-01T04:11:31;101013.16;;;13.64;82.83
16355;BME280;8287;51.644;8.494;2023-06-01T04:13:58;101012.84;;;13.66;82.66
16355;BME280;8287;51.644;8.494;2023-06-01T04:16:25;101014.44;;;13.75;82.08
16355;BME280;8287;51.644;8.494;2023-06-01T04:18:53;101008.50;;;13.78;81.33
16355;BME280;8287;51.644;8.494;2023-06-01T04:21:20;101005.88;;;13.48;82.63
16355;BME280;8287;51.644;8.494;2023-06-01T04:23:47;101010.63;;;13.59;82.75
16355;BME280;8287;51.644;8.494;2023-06-01T04:26:14;101007.97;;;13.59;82.22
16355;BME280;8287;51.644;8.494;2023-06-01T04:28:41;101010.69;;;13.68;81.28
16355;BME280;8287;51.644;8.494;2023-06-01T04:31:09;101013.50;;;13.71;81.90
16355;BME280;8287;51.644;8.494;2023-06-01T04:33:42;101006.88;;;13.60;81.75
16355;BME280;8287;51.644;8.494;2023-06-01T04:36:12;101008.44;;;13.61;81.23
16355;BME280;8287;51.644;8.494;2023-06-01T04:38:40;101016.22;;;13.49;81.97
16355;BME280;8287;51.644;8.494;2023-06-01T04:41:07;101019.91;;;13.31;82.63
16355;BME280;8287;51.644;8.494;2023-06-01T04:43:35;101015.34;;;13.32;84.64
16355;BME280;8287;51.644;8.494;2023-06-01T04:46:04;101017.03;;;13.50;82.73
16355;BME280;8287;51.644;8.494;2023-06-01T04:48:31;101010.09;;;13.49;84.12
16355;BME280;8287;51.644;8.494;2023-06-01T04:50:58;101010.53;;;13.42;84.46
16355;BME280;8287;51.644;8.494;2023-06-01T04:53:26;101010.00;;;13.32;85.72
16355;BME280;8287;51.644;8.494;2023-06-01T04:55:53;101011.75;;;13.36;84.76
16355;BME280;8287;51.644;8.494;2023-06-01T04:58:21;101005.31;;;13.59;82.81
16355;BME280;8287;51.644;8.494;2023-06-01T05:00:48;101009.06;;;13.58;83.35
16355;BME280;8287;51.644;8.494;2023-06-01T05:03:15;101006.88;;;13.60;82.43
16355;BME280;8287;51.644;8.494;2023-06-01T05:05:42;101006.44;;;13.67;81.52
16355;BME280;8287;51.644;8.494;2023-06-01T05:08:10;101009.13;;;13.75;81.55
16355;BME280;8287;51.644;8.494;2023-06-01T05:10:38;101005.69;;;13.75;82.06
16355;BME280;8287;51.644;8.494;2023-06-01T05:13:05;101004.13;;;13.82;81.02
16355;BME280;8287;51.644;8.494;2023-06-01T05:15:32;101005.09;;;13.47;81.88
16355;BME280;8287;51.644;8.494;2023-06-01T05:17:58;101002.88;;;13.41;82.79
16355;BME280;8287;51.644;8.494;2023-06-01T05:20:25;101007.06;;;13.33;83.07
16355;BME280;8287;51.644;8.494;2023-06-01T05:22:51;101001.47;;;13.43;82.31
16355;BME280;8287;51.644;8.494;2023-06-01T05:25:18;101000.78;;;13.29;82.92
16355;BME280;8287;51.644;8.494;2023-06-01T05:27:46;101007.03;;;13.55;81.87
16355;BME280;8287;51.644;8.494;2023-06-01T05:30:13;101012.75;;;13.49;81.92
16355;BME280;8287;51.644;8.494;2023-06-01T05:32:39;101011.72;;;13.58;81.79
16355;BME280;8287;51.644;8.494;2023-06-01T05:35:06;101010.66;;;13.07;83.61
16355;BME280;8287;51.644;8.494;2023-06-01T05:37:33;101007.22;;;13.28;83.86
16355;BME280;8287;51.644;8.494;2023-06-01T05:40:00;101010.69;;;13.37;83.24
16355;BME280;8287;51.644;8.494;2023-06-01T05:42:27;101015.84;;;13.12;82.71
16355;BME280;8287;51.644;8.494;2023-06-01T05:44:55;101017.84;;;13.07;84.51
16355;BME280;8287;51.644;8.494;2023-06-01T05:47:21;101017.78;;;12.98;85.42
16355;BME280;8287;51.644;8.494;2023-06-01T05:49:48;101008.78;;;13.29;83.88
16355;BME280;8287;51.644;8.494;2023-06-01T05:52:16;101010.38;;;13.39;83.49
16355;BME280;8287;51.644;8.494;2023-06-01T05:54:42;101021.91;;;13.56;81.20
16355;BME280;8287;51.644;8.494;2023-06-01T05:57:09;101015.19;;;13.67;80.29
16355;BME280;8287;51.644;8.494;2023-06-01T05:59:36;101026.75;;;13.54;80.70
16355;BME280;8287;51.644;8.494;2023-06-01T06:02:04;101020.81;;;13.57;81.09
16355;BME280;8287;51.644;8.494;2023-06-01T06:04:31;101019.59;;;13.72;80.72
16355;BME280;8287;51.644;8.494;2023-06-01T06:06:57;101028.41;;;13.81;79.97
16355;BME280;8287;51.644;8.494;2023-06-01T06:09:24;101020.59;;;13.84;80.20
16355;BME280;8287;51.644;8.494;2023-06-01T06:11:51;101018.78;;;13.63;81.44
16355;BME280;8287;51.644;8.494;2023-06-01T06:14:18;101019.13;;;13.70;81.54
16355;BME280;8287;51.644;8.494;2023-06-01T06:16:44;101017.97;;;13.23;81.72
16355;BME280;8287;51.644;8.494;2023-06-01T06:19:12;101011.53;;;13.55;81.61
16355;BME280;8287;51.644;8.494;2023-06-01T06:21:41;101015.41;;;13.79;79.27
16355;BME280;8287;51.644;8.494;2023-06-01T06:24:08;101016.38;;;13.83;79.45
16355;BME280;8287;51.644;8.494;2023-06-01T06:26:34;101016.38;;;13.83;78.37
16355;BME280;8287;51.644;8.494;2023-06-01T06:29:01;101014.16;;;13.85;77.77
16355;BME280;8287;51.644;8.494;2023-06-01T06:31:28;101014.34;;;13.89;77.88
16355;BME280;8287;51.644;8.494;2023-06-01T06:33:54;101017.81;;;13.89;78.21
16355;BME280;8287;51.644;8.494;2023-06-01T06:36:22;101015.31;;;13.93;77.79
16355;BME280;8287;51.644;8.494;2023-06-01T06:38:49;101014.84;;;13.99;78.18
16355;BME280;8287;51.644;8.494;2023-06-01T06:41:16;101013.00;;;14.08;77.59
16355;BME280;8287;51.644;8.494;2023-06-01T06:43:42;101020.53;;;14.15;76.95
16355;BME280;8287;51.644;8.494;2023-06-01T06:46:09;101021.44;;;14.10;76.89
16355;BME280;8287;51.644;8.494;2023-06-01T06:48:35;101027.75;;;14.14;76.48
16355;BME280;8287;51.644;8.494;2023-06-01T06:51:03;101026.50;;;14.20;75.81
16355;BME280;8287;51.644;8.494;2023-06-01T06:53:31;101030.00;;;14.29;76.24
16355;BME280;8287;51.644;8.494;2023-06-01T06:55:58;101032.34;;;14.31;75.52
16355;BME280;8287;51.644;8.494;2023-06-01T06:58:25;101036.13;;;14.38;74.61
16355;BME280;8287;51.644;8.494;2023-06-01T07:00:51;101041.38;;;14.04;76.97
16355;BME280;8287;51.644;8.494;2023-06-01T07:03:18;101036.59;;;13.54;78.29
16355;BME280;8287;51.644;8.494;2023-06-01T07:05:45;101029.16;;;13.64;79.13
16355;BME280;8287;51.644;8.494;2023-06-01T07:08:13;101033.97;;;14.01;77.50
16355;BME280;8287;51.644;8.494;2023-06-01T07:10:41;101033.63;;;14.25;76.15
16355;BME280;8287;51.644;8.494;2023-06-01T07:13:08;101037.19;;;14.20;76.92
16355;BME280;8287;51.644;8.494;2023-06-01T07:15:34;101025.16;;;14.40;75.81
16355;BME280;8287;51.644;8.494;2023-06-01T07:18:01;101027.03;;;14.48;76.03
16355;BME280;8287;51.644;8.494;2023-06-01T07:20:27;101031.09;;;14.20;76.27
16355;BME280;8287;51.644;8.494;2023-06-01T07:22:54;101033.16;;;14.31;76.52
16355;BME280;8287;51.644;8.494;2023-06-01T07:25:20;101028.75;;;14.52;74.99
16355;BME280;8287;51.644;8.494;2023-06-01T07:27:48;101027.53;;;14.58;74.58
16355;BME280;8287;51.644;8.494;2023-06-01T07:30:16;101033.94;;;14.66;74.09
16355;BME280;8287;51.644;8.494;2023-06-01T07:32:43;101026.59;;;14.71;74.37
16355;BME280;8287;51.644;8.494;2023-06-01T07:35:09;101033.00;;;14.70;73.81
16355;BME280;8287;51.644;8.494;2023-06-01T07:37:37;101028.63;;;14.74;73.94
16355;BME280;8287;51.644;8.494;2023-06-01T07:40:04;101030.03;;;14.72;74.73
16355;BME280;8287;51.644;8.494;2023-06-01T07:42:32;101031.44;;;14.86;74.91
16355;BME280;8287;51.644;8.494;2023-06-01T07:45:00;101024.38;;;14.90;72.93
16355;BME280;8287;51.644;8.494;2023-06-01T07:47:27;101027.50;;;14.92;73.21
16355;BME280;8287;51.644;8.494;2023-06-01T07:49:54;101037.41;;;15.00;72.84
16355;BME280;8287;51.644;8.494;2023-06-01T07:52:21;101031.28;;;15.08;72.96
16355;BME280;8287;51.644;8.494;2023-06-01T07:54:47;101041.78;;;15.05;72.59
16355;BME280;8287;51.644;8.494;2023-06-01T07:57:15;101030.78;;;15.15;72.43
16355;BME280;8287;51.644;8.494;2023-06-01T07:59:42;101032.66;;;15.23;72.71
16355;BME280;8287;51.644;8.494;2023-06-01T08:02:09;101033.91;;;15.17;71.34
16355;BME280;8287;51.644;8.494;2023-06-01T08:04:38;101036.28;;;15.27;71.60
16355;BME280;8287;51.644;8.494;2023-06-01T08:07:05;101040.88;;;14.84;71.97
16355;BME280;8287;51.644;8.494;2023-06-01T08:09:33;101036.19;;;14.08;75.62
16355;BME280;8287;51.644;8.494;2023-06-01T08:12:02;101026.59;;;14.71;74.22
16355;BME280;8287;51.644;8.494;2023-06-01T08:14:29;101021.69;;;14.99;72.72
16355;BME280;8287;51.644;8.494;2023-06-01T08:16:57;101021.50;;;15.12;71.54
16355;BME280;8287;51.644;8.494;2023-06-01T08:19:25;101024.16;;;15.38;70.39
16355;BME280;8287;51.644;8.494;2023-06-01T08:21:52;101013.63;;;15.41;70.16
16355;BME280;8287;51.644;8.494;2023-06-01T08:24:20;101009.97;;;15.54;69.79
16355;BME280;8287;51.644;8.494;2023-06-01T08:26:50;101011.81;;;15.62;69.91
16355;BME280;8287;51.644;8.494;2023-06-01T08:29:17;101012.56;;;15.71;69.50
16355;BME280;8287;51.644;8.494;2023-06-01T08:31:43;101012.53;;;15.80;69.01
16355;BME280;8287;51.644;8.494;2023-06-01T08:34:10;101014.41;;;15.79;68.54
16355;BME280;8287;51.644;8.494;2023-06-01T08:36:38;101021.16;;;15.85;68.33
16355;BME280;8287;51.644;8.494;2023-06-01T08:39:19;101015.81;;;15.85;68.66
16355;BME280;8287;51.644;8.494;2023-06-01T08:41:54;101009.06;;;15.88;68.52
16355;BME280;8287;51.644;8.494;2023-06-01T08:44:27;101007.44;;;15.95;68.42
16355;BME280;8287;51.644;8.494;2023-06-01T08:46:54;101007.25;;;16.00;68.78
16355;BME280;8287;51.644;8.494;2023-06-01T08:49:21;101010.84;;;16.04;68.83
16355;BME280;8287;51.644;8.494;2023-06-01T08:51:54;101009.53;;;16.10;68.76
16355;BME280;8287;51.644;8.494;2023-06-01T08:54:23;101000.56;;;16.15;68.48
16355;BME280;8287;51.644;8.494;2023-06-01T08:56:50;101009.97;;;16.21;68.16
16355;BME280;8287;51.644;8.494;2023-06-01T08:59:17;101004.53;;;16.29;67.93
16355;BME280;8287;51.644;8.494;2023-06-01T09:01:44;101006.59;;;16.32;67.44
16355;BME280;8287;51.644;8.494;2023-06-01T09:04:12;100998.97;;;16.43;67.05
16355;BME280;8287;51.644;8.494;2023-06-01T09:06:41;101007.56;;;16.28;68.10
16355;BME280;8287;51.644;8.494;2023-06-01T09:09:09;101006.69;;;16.44;66.67
16355;BME280;8287;51.644;8.494;2023-06-01T09:11:38;100998.34;;;16.46;67.16
16355;BME280;8287;51.644;8.494;2023-06-01T09:14:19;101006.09;;;16.59;67.01
16355;BME280;8287;51.644;8.494;2023-06-01T09:16:47;100999.22;;;16.70;67.01
16355;BME280;8287;51.644;8.494;2023-06-01T09:19:13;100997.47;;;16.74;66.72
16355;BME280;8287;51.644;8.494;2023-06-01T09:21:55;100999.47;;;16.77;66.90
16355;BME280;8287;51.644;8.494;2023-06-01T09:24:23;100999.03;;;16.75;66.45
16355;BME280;8287;51.644;8.494;2023-06-01T09:26:51;100996.91;;;16.19;68.69
16355;BME280;8287;51.644;8.494;2023-06-01T09:29:18;100989.25;;;16.59;67.71
16355;BME280;8287;51.644;8.494;2023-06-01T09:31:45;100994.16;;;16.57;67.63
16355;BME280;8287;51.644;8.494;2023-06-01T09:34:13;100997.47;;;16.74;67.89
16355;BME280;8287;51.644;8.494;2023-06-01T09:36:43;100987.25;;;16.88;66.69
16355;BME280;8287;51.644;8.494;2023-06-01T09:39:11;100993.66;;;16.95;66.76
16355;BME280;8287;51.644;8.494;2023-06-01T09:41:51;100988.25;;;16.83;67.58
16355;BME280;8287;51.644;8.494;2023-06-01T09:44:23;100984.25;;;16.89;66.96
16355;BME280;8287;51.644;8.494;2023-06-01T09:46:51;100994.22;;;17.01;66.46
16355;BME280;8287;51.644;8.494;2023-06-01T09:49:18;100987.09;;;17.05;66.87
16355;BME280;8287;51.644;8.494;2023-06-01T09:51:46;100974.25;;;16.66;66.71
16355;BME280;8287;51.644;8.494;2023-06-01T09:54:25;100982.00;;;15.89;69.37
16355;BME280;8287;51.644;8.494;2023-06-01T09:56:54;100979.44;;;15.72;69.46
16355;BME280;8287;51.644;8.494;2023-06-01T09:59:21;100973.94;;;15.98;71.98
16355;BME280;8287;51.644;8.494;2023-06-01T10:01:50;100973.41;;;16.54;69.68
16355;BME280;8287;51.644;8.494;2023-06-01T10:04:21;100963.63;;;16.90;66.85
16355;BME280;8287;51.644;8.494;2023-06-01T10:06:50;100964.34;;;17.11;67.16
16355;BME280;8287;51.644;8.494;2023-06-01T10:09:21;100963.66;;;17.02;66.21
16355;BME280;8287;51.644;8.494;2023-06-01T10:11:49;100972.13;;;16.39;67.99
16355;BME280;8287;51.644;8.494;2023-06-01T10:14:20;100961.75;;;16.09;70.54
16355;BME280;8287;51.644;8.494;2023-06-01T10:16:48;100966.75;;;16.39;71.41
16355;BME280;8287;51.644;8.494;2023-06-01T10:19:15;100954.78;;;16.77;69.83
16355;BME280;8287;51.644;8.494;2023-06-01T10:21:42;100956.16;;;16.95;69.81
16355;BME280;8287;51.644;8.494;2023-06-01T10:24:10;100963.44;;;16.34;69.79
16355;BME280;8287;51.644;8.494;2023-06-01T10:26:42;100964.97;;;16.96;68.55
16355;BME280;8287;51.644;8.494;2023-06-01T10:29:11;100950.13;;;17.31;66.58
16355;BME280;8287;51.644;8.494;2023-06-01T10:31:40;100950.50;;;17.53;66.21
16355;BME280;8287;51.644;8.494;2023-06-01T10:34:09;100947.59;;;17.70;65.60
16355;BME280;8287;51.644;8.494;2023-06-01T10:39:40;100950.94;;;17.43;65.45
16355;BME280;8287;51.644;8.494;2023-06-01T10:42:38;100959.06;;;16.09;70.02
16355;BME280;8287;51.644;8.494;2023-06-01T10:45:07;100951.13;;;16.94;68.98
16355;BME280;8287;51.644;8.494;2023-06-01T10:47:47;100958.50;;;17.41;67.02
16355;BME280;8287;51.644;8.494;2023-06-01T10:50:15;100954.72;;;17.66;65.96
16355;BME280;8287;51.644;8.494;2023-06-01T10:52:42;100940.19;;;17.79;65.06
16355;BME280;8287;51.644;8.494;2023-06-01T10:55:26;100949.44;;;17.94;65.75
16355;BME280;8287;51.644;8.494;2023-06-01T10:58:20;100953.25;;;17.93;64.76
16355;BME280;8287;51.644;8.494;2023-06-01T11:00:48;100941.88;;;17.84;65.26
16355;BME280;8287;51.644;8.494;2023-06-01T11:03:43;100945.44;;;17.64;66.22
16355;BME280;8287;51.644;8.494;2023-06-01T11:06:23;100943.97;;;17.90;64.65
16355;BME280;8287;51.644;8.494;2023-06-01T11:08:53;100949.66;;;18.01;64.80
16355;BME280;8287;51.644;8.494;2023-06-01T11:11:20;100944.78;;;17.91;64.90
16355;BME280;8287;51.644;8.494;2023-06-01T11:14:10;100941.03;;;16.79;68.92
16355;BME280;8287;51.644;8.494;2023-06-01T11:16:37;100940.44;;;17.62;67.04
16355;BME280;8287;51.644;8.494;2023-06-01T11:19:06;100936.72;;;17.91;65.18
16355;BME280;8287;51.644;8.494;2023-06-01T11:21:36;100941.03;;;18.07;64.53
16355;BME280;8287;51.644;8.494;2023-06-01T11:24:07;100938.00;;;18.21;65.25
16355;BME280;8287;51.644;8.494;2023-06-01T11:26:37;100929.88;;;18.05;65.77
16355;BME280;8287;51.644;8.494;2023-06-01T11:29:09;100941.47;;;18.21;64.31
16355;BME280;8287;51.644;8.494;2023-06-01T11:31:40;100934.53;;;18.20;64.51
16355;BME280;8287;51.644;8.494;2023-06-01T11:34:10;100936.88;;;18.34;64.04
16355;BME280;8287;51.644;8.494;2023-06-01T11:36:38;100939.41;;;18.42;63.74
16355;BME280;8287;51.644;8.494;2023-06-01T11:39:05;100932.91;;;18.43;64.16
16355;BME280;8287;51.644;8.494;2023-06-01T11:41:35;100930.72;;;18.33;64.21
16355;BME280;8287;51.644;8.494;2023-06-01T11:44:03;100927.28;;;18.33;64.85
16355;BME280;8287;51.644;8.494;2023-06-01T11:46:29;100929.91;;;18.45;64.58
16355;BME280;8287;51.644;8.494;2023-06-01T11:49:00;100931.13;;;18.08;66.56
16355;BME280;8287;51.644;8.494;2023-06-01T11:51:33;100933.25;;;17.90;65.52
16355;BME280;8287;51.644;8.494;2023-06-01T11:54:00;100929.44;;;18.03;67.01
16355;BME280;8287;51.644;8.494;2023-06-01T11:56:28;100924.34;;;17.74;66.20
16355;BME280;8287;51.644;8.494;2023-06-01T11:58:57;100926.69;;;18.27;65.71
16355;BME280;8287;51.644;8.494;2023-06-01T12:01:24;100923.81;;;18.08;64.33
16355;BME280;8287;51.644;8.494;2023-06-01T12:03:51;100925.00;;;17.95;65.22
16355;BME280;8287;51.644;8.494;2023-06-01T12:06:19;100928.38;;;18.20;66.86
16355;BME280;8287;51.644;8.494;2023-06-01T12:08:48;100923.31;;;17.91;64.65
16355;BME280;8287;51.644;8.494;2023-06-01T12:11:17;100921.06;;;17.93;67.15
16355;BME280;8287;51.644;8.494;2023-06-01T12:13:45;100919.78;;;18.54;65.32
16355;BME280;8287;51.644;8.494;2023-06-01T12:16:13;100914.84;;;18.83;64.85
16355;BME280;8287;51.644;8.494;2023-06-01T12:18:40;100918.13;;;18.77;65.18
16355;BME280;8287;51.644;8.494;2023-06-01T12:21:11;100918.50;;;18.91;63.20
16355;BME280;8287;51.644;8.494;2023-06-01T12:23:38;100924.81;;;18.98;63.74
16355;BME280;8287;51.644;8.494;2023-06-01T12:26:06;100921.53;;;18.89;62.95
16355;BME280;8287;51.644;8.494;2023-06-01T12:28:50;100923.31;;;18.70;64.27
16355;BME280;8287;51.644;8.494;2023-06-01T12:31:18;100911.72;;;18.81;63.66
16355;BME280;8287;51.644;8.494;2023-06-01T12:33:45;100917.81;;;18.94;62.10
16355;BME280;8287;51.644;8.494;2023-06-01T12:36:28;100911.94;;;17.46;66.61
16355;BME280;8287;51.644;8.494;2023-06-01T12:38:56;100919.84;;;17.18;68.65
16355;BME280;8287;51.644;8.494;2023-06-01T12:41:25;100911.53;;;17.56;69.65
16355;BME280;8287;51.644;8.494;2023-06-01T12:43:52;100904.50;;;18.15;68.10
16355;BME280;8287;51.644;8.494;2023-06-01T12:46:20;100912.63;;;17.67;67.61
16355;BME280;8287;51.644;8.494;2023-06-01T12:48:47;100904.94;;;18.05;68.59
16355;BME280;8287;51.644;8.494;2023-06-01T12:51:14;100902.28;;;18.44;67.59
16355;BME280;8287;51.644;8.494;2023-06-01T12:53:42;100905.72;;;18.72;66.01
16355;BME280;8287;51.644;8.494;2023-06-01T12:56:09;100904.63;;;18.89;64.46
16355;BME280;8287;51.644;8.494;2023-06-01T12:58:37;100905.66;;;18.41;65.57
16355;BME280;8287;51.644;8.494;2023-06-01T13:01:04;100906.66;;;17.97;65.99
16355;BME280;8287;51.644;8.494;2023-06-01T13:03:31;100905.63;;;18.53;65.38
16355;BME280;8287;51.644;8.494;2023-06-01T13:05:57;100897.91;;;18.67;65.08
16355;BME280;8287;51.644;8.494;2023-06-01T13:08:25;100896.59;;;19.04;64.92
16355;BME280;8287;51.644;8.494;2023-06-01T13:10:52;100893.22;;;19.23;63.21